sensor_id;sensor_type;location;lat;lon;timestamp;P1;durP1;ratioP1;P2;durP2;ratioP2
74152;SDS011;62505;46.070;14.492;2024-01-07T00:00:51;17.20;;;6.03;;
74152;SDS011;62505;46.070;14.492;2024-01-07T00:03:18;12.63;;;5.80;;
74152;SDS011;62505;46.070;14.492;2024-01-07T00:05:46;15.35;;;6.20;;
74152;SDS011;62505;46.070;14.492;2024-01-07T00:08:13;13.82;;;5.97;;
74152;SDS011;62505;46.070;14.492;2024-01-07T00:10:40;13.43;;;6.60;;
74152;SDS011;62505;46.070;14.492;2024-01-07T00:13:07;12.93;;;6.30;;
74152;SDS011;62505;46.070;14.492;2024-01-07T00:15:34;12.55;;;5.70;;
74152;SDS011;62505;46.070;14.492;2024-01-07T00:18:01;10.45;;;5.25;;
74152;SDS011;62505;46.070;14.492;2024-01-07T00:20:28;15.07;;;6.20;;
74152;SDS011;62505;46.070;14.492;2024-01-07T00:22:56;15.07;;;6.53;;
74152;SDS011;62505;46.070;14.492;2024-01-07T00:25:23;17.08;;;6.05;;
74152;SDS011;62505;46.070;14.492;2024-01-07T00:27:50;13.10;;;5.90;;
74152;SDS011;62505;46.070;14.492;2024-01-07T00:30:20;15.05;;;6.97;;
74152;SDS011;62505;46.070;14.492;2024-01-07T00:32:47;14.45;;;6.13;;
74152;SDS011;62505;46.070;14.492;2024-01-07T00:35:16;12.35;;;6.35;;
74152;SDS011;62505;46.070;14.492;2024-01-07T00:37:43;16.45;;;6.38;;
74152;SDS011;62505;46.070;14.492;2024-01-07T00:40:12;11.93;;;5.68;;
74152;SDS011;62505;46.070;14.492;2024-01-07T00:42:39;12.15;;;5.78;;
74152;SDS011;62505;46.070;14.492;2024-01-07T00:45:06;12.13;;;5.90;;
74152;SDS011;62505;46.070;14.492;2024-01-07T00:47:35;11.77;;;5.60;;
74152;SDS011;62505;46.070;14.492;2024-01-07T00:50:02;19.42;;;6.05;;
74152;SDS011;62505;46.070;14.492;2024-01-07T00:52:28;11.45;;;5.70;;
74152;SDS011;62505;46.070;14.492;2024-01-07T00:54:55;17.42;;;5.75;;
74152;SDS011;62505;46.070;14.492;2024-01-07T00:57:23;13.05;;;5.45;;
74152;SDS011;62505;46.070;14.492;2024-01-07T00:59:50;10.77;;;5.68;;
74152;SDS011;62505;46.070;14.492;2024-01-07T01:02:17;11.27;;;5.72;;
74152;SDS011;62505;46.070;14.492;2024-01-07T01:04:44;15.57;;;5.90;;
74152;SDS011;62505;46.070;14.492;2024-01-07T01:07:11;11.40;;;5.35;;
74152;SDS011;62505;46.070;14.492;2024-01-07T01:09:38;9.57;;;4.90;;
74152;SDS011;62505;46.070;14.492;2024-01-07T01:12:05;12.65;;;5.63;;
74152;SDS011;62505;46.070;14.492;2024-01-07T01:14:34;15.65;;;5.32;;
74152;SDS011;62505;46.070;14.492;2024-01-07T01:17:01;12.85;;;5.88;;
74152;SDS011;62505;46.070;14.492;2024-01-07T01:19:28;17.05;;;5.32;;
74152;SDS011;62505;46.070;14.492;2024-01-07T01:21:55;23.08;;;7.35;;
74152;SDS011;62505;46.070;14.492;2024-01-07T01:24:22;19.27;;;6.22;;
74152;SDS011;62505;46.070;14.492;2024-01-07T01:26:49;23.38;;;5.93;;
74152;SDS011;62505;46.070;14.492;2024-01-07T01:29:16;20.58;;;6.38;;
74152;SDS011;62505;46.070;14.492;2024-01-07T01:31:44;29.90;;;7.32;;
74152;SDS011;62505;46.070;14.492;2024-01-07T01:34:11;19.63;;;7.28;;
74152;SDS011;62505;46.070;14.492;2024-01-07T01:36:38;17.80;;;6.22;;
74152;SDS011;62505;46.070;14.492;2024-01-07T01:39:05;18.35;;;6.47;;
74152;SDS011;62505;46.070;14.492;2024-01-07T01:41:32;19.08;;;6.20;;
74152;SDS011;62505;46.070;14.492;2024-01-07T01:44:00;24.80;;;6.28;;
74152;SDS011;62505;46.070;14.492;2024-01-07T01:46:27;20.70;;;7.43;;
74152;SDS011;62505;46.070;14.492;2024-01-07T01:48:57;19.05;;;6.20;;
74152;SDS011;62505;46.070;14.492;2024-01-07T01:51:24;18.52;;;5.60;;
74152;SDS011;62505;46.070;14.492;2024-01-07T01:53:51;18.67;;;5.88;;
74152;SDS011;62505;46.070;14.492;2024-01-07T01:56:19;16.13;;;5.80;;
74152;SDS011;62505;46.070;14.492;2024-01-07T01:58:46;18.30;;;6.20;;
74152;SDS011;62505;46.070;14.492;2024-01-07T02:01:13;18.88;;;5.97;;
74152;SDS011;62505;46.070;14.492;2024-01-07T02:03:41;21.17;;;6.28;;
74152;SDS011;62505;46.070;14.492;2024-01-07T02:06:09;23.83;;;6.78;;
74152;SDS011;62505;46.070;14.492;2024-01-07T02:08:37;24.52;;;6.45;;
74152;SDS011;62505;46.070;14.492;2024-01-07T02:11:14;14.13;;;5.85;;
74152;SDS011;62505;46.070;14.492;2024-01-07T02:13:42;14.82;;;5.63;;
74152;SDS011;62505;46.070;14.492;2024-01-07T02:16:09;15.20;;;5.28;;
74152;SDS011;62505;46.070;14.492;2024-01-07T02:18:37;12.20;;;4.75;;
74152;SDS011;62505;46.070;14.492;2024-01-07T02:21:04;12.70;;;5.07;;
74152;SDS011;62505;46.070;14.492;2024-01-07T02:23:34;12.82;;;4.50;;
74152;SDS011;62505;46.070;14.492;2024-01-07T02:26:03;11.85;;;4.97;;
74152;SDS011;62505;46.070;14.492;2024-01-07T02:28:30;13.80;;;4.45;;
74152;SDS011;62505;46.070;14.492;2024-01-07T02:30:57;16.13;;;4.35;;
74152;SDS011;62505;46.070;14.492;2024-01-07T02:33:25;12.90;;;4.45;;
74152;SDS011;62505;46.070;14.492;2024-01-07T02:35:52;14.75;;;4.47;;
74152;SDS011;62505;46.070;14.492;2024-01-07T02:38:19;9.45;;;4.15;;
74152;SDS011;62505;46.070;14.492;2024-01-07T02:40:46;9.07;;;3.20;;
74152;SDS011;62505;46.070;14.492;2024-01-07T02:43:14;9.82;;;3.40;;
74152;SDS011;62505;46.070;14.492;2024-01-07T02:45:41;11.05;;;3.78;;
74152;SDS011;62505;46.070;14.492;2024-01-07T02:48:08;10.15;;;3.63;;
74152;SDS011;62505;46.070;14.492;2024-01-07T02:50:36;12.15;;;4.30;;
74152;SDS011;62505;46.070;14.492;2024-01-07T02:53:03;6.05;;;2.88;;
74152;SDS011;62505;46.070;14.492;2024-01-07T02:55:30;7.30;;;3.60;;
74152;SDS011;62505;46.070;14.492;2024-01-07T02:57:57;9.02;;;2.85;;
74152;SDS011;62505;46.070;14.492;2024-01-07T03:00:25;10.27;;;3.22;;
74152;SDS011;62505;46.070;14.492;2024-01-07T03:02:52;7.57;;;3.00;;
74152;SDS011;62505;46.070;14.492;2024-01-07T03:05:19;9.43;;;3.25;;
74152;SDS011;62505;46.070;14.492;2024-01-07T03:07:46;7.70;;;3.35;;
74152;SDS011;62505;46.070;14.492;2024-01-07T03:10:13;6.53;;;2.55;;
74152;SDS011;62505;46.070;14.492;2024-01-07T03:12:40;7.47;;;2.90;;
74152;SDS011;62505;46.070;14.492;2024-01-07T03:15:07;6.05;;;2.75;;
74152;SDS011;62505;46.070;14.492;2024-01-07T03:17:36;5.75;;;2.20;;
74152;SDS011;62505;46.070;14.492;2024-01-07T03:20:03;7.15;;;2.63;;
74152;SDS011;62505;46.070;14.492;2024-01-07T03:22:31;6.32;;;2.50;;
74152;SDS011;62505;46.070;14.492;2024-01-07T03:24:58;6.22;;;2.55;;
74152;SDS011;62505;46.070;14.492;2024-01-07T03:27:25;4.63;;;2.00;;
74152;SDS011;62505;46.070;14.492;2024-01-07T03:29:52;9.73;;;2.55;;
74152;SDS011;62505;46.070;14.492;2024-01-07T03:32:18;8.07;;;2.70;;
74152;SDS011;62505;46.070;14.492;2024-01-07T03:34:47;5.40;;;2.35;;
74152;SDS011;62505;46.070;14.492;2024-01-07T03:37:14;6.75;;;2.53;;
74152;SDS011;62505;46.070;14.492;2024-01-07T03:39:42;9.50;;;2.90;;
74152;SDS011;62505;46.070;14.492;2024-01-07T03:42:10;6.38;;;2.58;;
74152;SDS011;62505;46.070;14.492;2024-01-07T03:44:37;4.50;;;2.70;;
74152;SDS011;62505;46.070;14.492;2024-01-07T03:47:04;6.10;;;2.45;;
74152;SDS011;62505;46.070;14.492;2024-01-07T03:49:31;4.55;;;2.33;;
74152;SDS011;62505;46.070;14.492;2024-01-07T03:52:00;6.15;;;2.17;;
74152;SDS011;62505;46.070;14.492;2024-01-07T03:54:27;3.65;;;2.00;;
74152;SDS011;62505;46.070;14.492;2024-01-07T03:56:54;5.53;;;2.05;;
74152;SDS011;62505;46.070;14.492;2024-01-07T03:59:21;3.85;;;1.98;;
74152;SDS011;62505;46.070;14.492;2024-01-07T04:01:50;5.55;;;2.05;;
74152;SDS011;62505;46.070;14.492;2024-01-07T04:04:17;5.10;;;2.10;;
74152;SDS011;62505;46.070;14.492;2024-01-07T04:06:44;5.43;;;2.45;;
74152;SDS011;62505;46.070;14.492;2024-01-07T04:09:12;4.88;;;2.28;;
74152;SDS011;62505;46.070;14.492;2024-01-07T04:11:39;3.25;;;2.08;;
74152;SDS011;62505;46.070;14.492;2024-01-07T04:14:07;5.70;;;2.00;;
74152;SDS011;62505;46.070;14.492;2024-01-07T04:16:34;5.85;;;2.40;;
74152;SDS011;62505;46.070;14.492;2024-01-07T04:19:01;5.45;;;2.30;;
74152;SDS011;62505;46.070;14.492;2024-01-07T04:21:28;3.88;;;2.13;;
74152;SDS011;62505;46.070;14.492;2024-01-07T04:23:55;5.30;;;2.05;;
74152;SDS011;62505;46.070;14.492;2024-01-07T04:26:23;3.65;;;1.50;;
74152;SDS011;62505;46.070;14.492;2024-01-07T04:28:50;2.75;;;1.92;;
74152;SDS011;62505;46.070;14.492;2024-01-07T04:31:17;4.53;;;2.03;;
74152;SDS011;62505;46.070;14.492;2024-01-07T04:33:44;2.95;;;1.75;;
74152;SDS011;62505;46.070;14.492;2024-01-07T04:36:11;3.40;;;1.73;;
74152;SDS011;62505;46.070;14.492;2024-01-07T04:38:38;2.50;;;1.70;;
74152;SDS011;62505;46.070;14.492;2024-01-07T04:41:05;4.85;;;2.00;;
74152;SDS011;62505;46.070;14.492;2024-01-07T04:43:35;3.03;;;1.60;;
74152;SDS011;62505;46.070;14.492;2024-01-07T04:46:02;3.67;;;1.83;;
74152;SDS011;62505;46.070;14.492;2024-01-07T04:48:31;3.97;;;2.05;;
74152;SDS011;62505;46.070;14.492;2024-01-07T04:50:58;3.17;;;1.55;;
74152;SDS011;62505;46.070;14.492;2024-01-07T04:53:24;4.38;;;1.58;;
74152;SDS011;62505;46.070;14.492;2024-01-07T04:55:51;3.05;;;1.60;;
74152;SDS011;62505;46.070;14.492;2024-01-07T04:58:18;2.90;;;1.63;;
74152;SDS011;62505;46.070;14.492;2024-01-07T05:00:47;2.88;;;1.67;;
74152;SDS011;62505;46.070;14.492;2024-01-07T05:03:14;3.30;;;1.75;;
74152;SDS011;62505;46.070;14.492;2024-01-07T05:05:41;5.53;;;1.98;;
74152;SDS011;62505;46.070;14.492;2024-01-07T05:08:08;4.70;;;1.65;;
74152;SDS011;62505;46.070;14.492;2024-01-07T05:10:34;3.72;;;1.80;;
74152;SDS011;62505;46.070;14.492;2024-01-07T05:13:01;3.97;;;1.73;;
74152;SDS011;62505;46.070;14.492;2024-01-07T05:15:31;3.60;;;1.65;;
74152;SDS011;62505;46.070;14.492;2024-01-07T05:18:00;3.78;;;2.05;;
74152;SDS011;62505;46.070;14.492;2024-01-07T05:20:27;7.25;;;1.83;;
74152;SDS011;62505;46.070;14.492;2024-01-07T05:22:54;6.22;;;1.70;;
74152;SDS011;62505;46.070;14.492;2024-01-07T05:25:21;3.80;;;1.95;;
74152;SDS011;62505;46.070;14.492;2024-01-07T05:27:48;3.63;;;2.05;;
74152;SDS011;62505;46.070;14.492;2024-01-07T05:30:15;3.47;;;1.75;;
74152;SDS011;62505;46.070;14.492;2024-01-07T05:32:42;6.07;;;1.65;;
74152;SDS011;62505;46.070;14.492;2024-01-07T05:35:11;6.57;;;2.00;;
74152;SDS011;62505;46.070;14.492;2024-01-07T05:37:37;5.43;;;2.00;;
74152;SDS011;62505;46.070;14.492;2024-01-07T05:40:05;7.15;;;1.88;;
74152;SDS011;62505;46.070;14.492;2024-01-07T05:42:33;8.75;;;1.80;;
74152;SDS011;62505;46.070;14.492;2024-01-07T05:45:00;7.32;;;1.80;;
74152;SDS011;62505;46.070;14.492;2024-01-07T05:47:27;5.57;;;1.80;;
74152;SDS011;62505;46.070;14.492;2024-01-07T05:49:55;3.72;;;1.50;;
74152;SDS011;62505;46.070;14.492;2024-01-07T05:52:23;2.75;;;1.73;;
74152;SDS011;62505;46.070;14.492;2024-01-07T05:54:50;2.28;;;1.63;;
74152;SDS011;62505;46.070;14.492;2024-01-07T05:57:17;5.85;;;1.50;;
74152;SDS011;62505;46.070;14.492;2024-01-07T05:59:44;2.95;;;1.65;;
74152;SDS011;62505;46.070;14.492;2024-01-07T06:02:11;4.22;;;1.65;;
74152;SDS011;62505;46.070;14.492;2024-01-07T06:04:38;3.63;;;1.33;;
74152;SDS011;62505;46.070;14.492;2024-01-07T06:07:06;4.65;;;1.40;;
74152;SDS011;62505;46.070;14.492;2024-01-07T06:09:34;2.95;;;1.35;;
74152;SDS011;62505;46.070;14.492;2024-01-07T06:12:01;6.65;;;1.70;;
74152;SDS011;62505;46.070;14.492;2024-01-07T06:14:29;3.92;;;1.48;;
74152;SDS011;62505;46.070;14.492;2024-01-07T06:16:56;5.25;;;1.10;;
74152;SDS011;62505;46.070;14.492;2024-01-07T06:19:23;2.95;;;1.27;;
74152;SDS011;62505;46.070;14.492;2024-01-07T06:21:50;3.08;;;1.48;;
74152;SDS011;62505;46.070;14.492;2024-01-07T06:24:17;4.80;;;1.50;;
74152;SDS011;62505;46.070;14.492;2024-01-07T06:26:45;3.58;;;1.50;;
74152;SDS011;62505;46.070;14.492;2024-01-07T06:29:12;2.83;;;1.30;;
74152;SDS011;62505;46.070;14.492;2024-01-07T06:31:42;2.15;;;1.20;;
74152;SDS011;62505;46.070;14.492;2024-01-07T06:34:10;7.00;;;1.38;;
74152;SDS011;62505;46.070;14.492;2024-01-07T06:36:38;2.08;;;1.42;;
74152;SDS011;62505;46.070;14.492;2024-01-07T06:39:06;1.85;;;1.08;;
74152;SDS011;62505;46.070;14.492;2024-01-07T06:41:33;2.97;;;1.27;;
74152;SDS011;62505;46.070;14.492;2024-01-07T06:44:01;3.33;;;1.38;;
74152;SDS011;62505;46.070;14.492;2024-01-07T06:46:28;8.73;;;1.30;;
74152;SDS011;62505;46.070;14.492;2024-01-07T06:48:55;5.60;;;1.40;;
74152;SDS011;62505;46.070;14.492;2024-01-07T06:51:22;2.47;;;1.60;;
74152;SDS011;62505;46.070;14.492;2024-01-07T06:53:49;3.28;;;0.88;;
74152;SDS011;62505;46.070;14.492;2024-01-07T06:56:16;3.15;;;1.45;;
74152;SDS011;62505;46.070;14.492;2024-01-07T06:58:43;3.05;;;1.23;;
74152;SDS011;62505;46.070;14.492;2024-01-07T07:01:12;3.08;;;1.10;;
74152;SDS011;62505;46.070;14.492;2024-01-07T07:03:39;2.65;;;1.25;;
74152;SDS011;62505;46.070;14.492;2024-01-07T07:06:07;6.05;;;1.17;;
74152;SDS011;62505;46.070;14.492;2024-01-07T07:08:34;3.78;;;0.95;;
74152;SDS011;62505;46.070;14.492;2024-01-07T07:11:01;2.78;;;1.23;;
74152;SDS011;62505;46.070;14.492;2024-01-07T07:13:28;2.35;;;1.30;;
74152;SDS011;62505;46.070;14.492;2024-01-07T07:15:55;2.92;;;1.08;;
74152;SDS011;62505;46.070;14.492;2024-01-07T07:18:23;1.80;;;0.95;;
74152;SDS011;62505;46.070;14.492;2024-01-07T07:20:50;1.75;;;0.82;;
74152;SDS011;62505;46.070;14.492;2024-01-07T07:23:17;4.00;;;1.55;;
74152;SDS011;62505;46.070;14.492;2024-01-07T07:25:44;2.30;;;1.00;;
74152;SDS011;62505;46.070;14.492;2024-01-07T07:28:12;2.15;;;0.90;;
74152;SDS011;62505;46.070;14.492;2024-01-07T07:30:39;1.25;;;0.90;;
74152;SDS011;62505;46.070;14.492;2024-01-07T07:33:06;3.35;;;0.90;;
74152;SDS011;62505;46.070;14.492;2024-01-07T07:35:34;2.25;;;1.10;;
74152;SDS011;62505;46.070;14.492;2024-01-07T07:38:03;1.90;;;0.90;;
74152;SDS011;62505;46.070;14.492;2024-01-07T07:40:31;4.85;;;1.13;;
74152;SDS011;62505;46.070;14.492;2024-01-07T07:42:58;4.53;;;1.35;;
74152;SDS011;62505;46.070;14.492;2024-01-07T07:45:25;4.50;;;1.45;;
74152;SDS011;62505;46.070;14.492;2024-01-07T07:47:52;1.73;;;1.05;;
74152;SDS011;62505;46.070;14.492;2024-01-07T07:50:19;4.45;;;1.52;;
74152;SDS011;62505;46.070;14.492;2024-01-07T07:52:48;3.60;;;0.95;;
74152;SDS011;62505;46.070;14.492;2024-01-07T07:55:15;4.55;;;1.20;;
74152;SDS011;62505;46.070;14.492;2024-01-07T07:57:43;2.97;;;1.23;;
74152;SDS011;62505;46.070;14.492;2024-01-07T08:00:11;2.10;;;0.70;;
74152;SDS011;62505;46.070;14.492;2024-01-07T08:02:39;3.67;;;1.38;;
74152;SDS011;62505;46.070;14.492;2024-01-07T08:05:06;3.28;;;1.10;;
74152;SDS011;62505;46.070;14.492;2024-01-07T08:07:33;3.25;;;1.02;;
74152;SDS011;62505;46.070;14.492;2024-01-07T08:10:04;2.78;;;1.20;;
74152;SDS011;62505;46.070;14.492;2024-01-07T08:12:34;2.55;;;0.88;;
74152;SDS011;62505;46.070;14.492;2024-01-07T08:15:02;3.92;;;1.10;;
74152;SDS011;62505;46.070;14.492;2024-01-07T08:17:30;1.88;;;1.00;;
74152;SDS011;62505;46.070;14.492;2024-01-07T08:19:57;3.17;;;1.17;;
74152;SDS011;62505;46.070;14.492;2024-01-07T08:22:24;12.10;;;2.83;;
74152;SDS011;62505;46.070;14.492;2024-01-07T08:24:51;4.70;;;1.30;;
74152;SDS011;62505;46.070;14.492;2024-01-07T08:27:20;4.00;;;1.13;;
74152;SDS011;62505;46.070;14.492;2024-01-07T08:29:47;5.07;;;1.02;;
74152;SDS011;62505;46.070;14.492;2024-01-07T08:32:14;2.05;;;1.25;;
74152;SDS011;62505;46.070;14.492;2024-01-07T08:34:41;6.30;;;1.02;;
74152;SDS011;62505;46.070;14.492;2024-01-07T08:37:08;4.57;;;1.42;;
74152;SDS011;62505;46.070;14.492;2024-01-07T08:39:35;4.75;;;1.20;;
74152;SDS011;62505;46.070;14.492;2024-01-07T08:42:02;4.35;;;1.50;;
74152;SDS011;62505;46.070;14.492;2024-01-07T08:44:31;2.45;;;1.10;;
74152;SDS011;62505;46.070;14.492;2024-01-07T08:46:58;6.05;;;1.35;;
74152;SDS011;62505;46.070;14.492;2024-01-07T08:49:27;3.33;;;1.30;;
74152;SDS011;62505;46.070;14.492;2024-01-07T08:51:55;4.15;;;1.30;;
74152;SDS011;62505;46.070;14.492;2024-01-07T08:54:22;4.03;;;1.13;;
74152;SDS011;62505;46.070;14.492;2024-01-07T08:56:49;6.15;;;1.70;;
74152;SDS011;62505;46.070;14.492;2024-01-07T08:59:16;2.45;;;1.00;;
74152;SDS011;62505;46.070;14.492;2024-01-07T09:01:44;2.88;;;1.20;;
74152;SDS011;62505;46.070;14.492;2024-01-07T09:04:11;5.55;;;1.25;;
74152;SDS011;62505;46.070;14.492;2024-01-07T09:06:38;5.35;;;1.35;;
74152;SDS011;62505;46.070;14.492;2024-01-07T09:09:05;6.28;;;1.10;;
74152;SDS011;62505;46.070;14.492;2024-01-07T09:11:33;3.00;;;1.02;;
74152;SDS011;62505;46.070;14.492;2024-01-07T09:14:01;4.60;;;1.67;;
74152;SDS011;62505;46.070;14.492;2024-01-07T09:16:29;8.65;;;1.50;;
74152;SDS011;62505;46.070;14.492;2024-01-07T09:18:57;6.72;;;1.50;;
74152;SDS011;62505;46.070;14.492;2024-01-07T09:21:24;4.20;;;1.38;;
74152;SDS011;62505;46.070;14.492;2024-01-07T09:23:51;5.57;;;1.25;;
74152;SDS011;62505;46.070;14.492;2024-01-07T09:26:18;4.75;;;1.38;;
74152;SDS011;62505;46.070;14.492;2024-01-07T09:28:46;4.45;;;1.20;;
74152;SDS011;62505;46.070;14.492;2024-01-07T09:31:13;8.63;;;2.15;;
74152;SDS011;62505;46.070;14.492;2024-01-07T09:33:40;13.50;;;2.08;;
74152;SDS011;62505;46.070;14.492;2024-01-07T09:36:09;7.78;;;1.65;;
74152;SDS011;62505;46.070;14.492;2024-01-07T09:38:36;8.82;;;2.20;;
74152;SDS011;62505;46.070;14.492;2024-01-07T09:41:03;8.85;;;2.20;;
74152;SDS011;62505;46.070;14.492;2024-01-07T09:43:31;13.65;;;2.22;;
74152;SDS011;62505;46.070;14.492;2024-01-07T09:45:58;9.85;;;2.40;;
74152;SDS011;62505;46.070;14.492;2024-01-07T09:48:26;6.72;;;2.03;;
74152;SDS011;62505;46.070;14.492;2024-01-07T09:50:53;7.85;;;2.08;;
74152;SDS011;62505;46.070;14.492;2024-01-07T09:53:21;10.07;;;2.13;;
74152;SDS011;62505;46.070;14.492;2024-01-07T09:55:54;5.55;;;2.20;;
74152;SDS011;62505;46.070;14.492;2024-01-07T09:58:27;11.30;;;2.45;;
74152;SDS011;62505;46.070;14.492;2024-01-07T10:00:54;19.80;;;2.60;;
74152;SDS011;62505;46.070;14.492;2024-01-07T10:03:21;10.05;;;2.22;;
74152;SDS011;62505;46.070;14.492;2024-01-07T10:05:49;9.45;;;2.40;;
74152;SDS011;62505;46.070;14.492;2024-01-07T10:08:16;14.00;;;2.78;;
74152;SDS011;62505;46.070;14.492;2024-01-07T10:10:45;22.88;;;4.07;;
74152;SDS011;62505;46.070;14.492;2024-01-07T10:13:14;22.35;;;4.30;;
74152;SDS011;62505;46.070;14.492;2024-01-07T10:15:41;22.77;;;4.95;;
74152;SDS011;62505;46.070;14.492;2024-01-07T10:18:08;17.20;;;4.70;;
74152;SDS011;62505;46.070;14.492;2024-01-07T10:20:35;16.17;;;3.72;;
74152;SDS011;62505;46.070;14.492;2024-01-07T10:23:03;14.07;;;3.40;;
74152;SDS011;62505;46.070;14.492;2024-01-07T10:25:32;16.35;;;3.83;;
74152;SDS011;62505;46.070;14.492;2024-01-07T10:28:01;14.70;;;3.53;;
74152;SDS011;62505;46.070;14.492;2024-01-07T10:30:28;16.65;;;4.68;;
74152;SDS011;62505;46.070;14.492;2024-01-07T10:32:57;21.35;;;4.20;;
74152;SDS011;62505;46.070;14.492;2024-01-07T10:35:26;19.27;;;3.80;;
74152;SDS011;62505;46.070;14.492;2024-01-07T10:37:55;9.07;;;3.60;;
74152;SDS011;62505;46.070;14.492;2024-01-07T10:40:23;2.25;;;1.48;;
74152;SDS011;62505;46.070;14.492;2024-01-07T10:42:51;4.00;;;1.90;;
74152;SDS011;62505;46.070;14.492;2024-01-07T10:45:22;2.75;;;2.25;;
74152;SDS011;62505;46.070;14.492;2024-01-07T10:47:49;3.75;;;2.47;;
74152;SDS011;62505;46.070;14.492;2024-01-07T10:50:19;2.45;;;2.00;;
74152;SDS011;62505;46.070;14.492;2024-01-07T10:52:48;3.33;;;2.50;;
74152;SDS011;62505;46.070;14.492;2024-01-07T10:55:17;1.95;;;1.75;;
74152;SDS011;62505;46.070;14.492;2024-01-07T10:57:46;2.13;;;1.48;;
74152;SDS011;62505;46.070;14.492;2024-01-07T11:00:15;2.00;;;1.02;;
74152;SDS011;62505;46.070;14.492;2024-01-07T11:02:51;1.35;;;1.10;;
74152;SDS011;62505;46.070;14.492;2024-01-07T11:05:31;2.22;;;1.02;;
74152;SDS011;62505;46.070;14.492;2024-01-07T11:08:04;2.65;;;1.15;;
74152;SDS011;62505;46.070;14.492;2024-01-07T11:10:37;1.35;;;0.93;;
74152;SDS011;62505;46.070;14.492;2024-01-07T11:13:09;2.75;;;1.13;;
74152;SDS011;62505;46.070;14.492;2024-01-07T11:15:51;1.70;;;1.02;;
74152;SDS011;62505;46.070;14.492;2024-01-07T11:18:21;2.47;;;1.50;;
74152;SDS011;62505;46.070;14.492;2024-01-07T11:20:49;1.48;;;1.20;;
74152;SDS011;62505;46.070;14.492;2024-01-07T11:23:26;1.63;;;1.08;;
74152;SDS011;62505;46.070;14.492;2024-01-07T11:25:55;1.60;;;1.15;;
74152;SDS011;62505;46.070;14.492;2024-01-07T11:28:42;1.50;;;0.95;;
74152;SDS011;62505;46.070;14.492;2024-01-07T11:31:10;2.35;;;1.20;;
74152;SDS011;62505;46.070;14.492;2024-01-07T11:33:39;2.53;;;1.70;;
74152;SDS011;62505;46.070;14.492;2024-01-07T11:36:10;2.00;;;1.70;;
74152;SDS011;62505;46.070;14.492;2024-01-07T11:38:37;2.83;;;1.50;;
74152;SDS011;62505;46.070;14.492;2024-01-07T11:41:07;2.33;;;1.25;;
74152;SDS011;62505;46.070;14.492;2024-01-07T11:43:35;1.80;;;1.30;;
74152;SDS011;62505;46.070;14.492;2024-01-07T11:46:02;1.77;;;1.20;;
74152;SDS011;62505;46.070;14.492;2024-01-07T11:48:30;2.42;;;0.95;;
74152;SDS011;62505;46.070;14.492;2024-01-07T11:50:58;2.08;;;1.20;;
74152;SDS011;62505;46.070;14.492;2024-01-07T11:53:25;1.23;;;1.10;;
74152;SDS011;62505;46.070;14.492;2024-01-07T11:55:52;3.88;;;1.98;;
74152;SDS011;62505;46.070;14.492;2024-01-07T11:58:19;8.50;;;2.05;;
74152;SDS011;62505;46.070;14.492;2024-01-07T12:00:46;4.90;;;2.22;;
74152;SDS011;62505;46.070;14.492;2024-01-07T12:03:15;4.22;;;1.77;;
74152;SDS011;62505;46.070;14.492;2024-01-07T12:05:42;7.75;;;2.25;;
74152;SDS011;62505;46.070;14.492;2024-01-07T12:08:10;9.10;;;2.30;;
74152;SDS011;62505;46.070;14.492;2024-01-07T12:10:37;10.52;;;2.97;;
74152;SDS011;62505;46.070;14.492;2024-01-07T12:13:04;7.13;;;1.90;;
74152;SDS011;62505;46.070;14.492;2024-01-07T12:15:32;6.47;;;1.80;;
74152;SDS011;62505;46.070;14.492;2024-01-07T12:17:59;3.08;;;1.63;;
74152;SDS011;62505;46.070;14.492;2024-01-07T12:20:26;6.55;;;1.85;;
74152;SDS011;62505;46.070;14.492;2024-01-07T12:22:55;6.97;;;1.90;;
74152;SDS011;62505;46.070;14.492;2024-01-07T12:25:25;5.82;;;1.52;;
74152;SDS011;62505;46.070;14.492;2024-01-07T12:27:52;8.77;;;2.20;;
74152;SDS011;62505;46.070;14.492;2024-01-07T12:30:20;6.32;;;1.60;;
74152;SDS011;62505;46.070;14.492;2024-01-07T12:32:47;6.05;;;2.00;;
74152;SDS011;62505;46.070;14.492;2024-01-07T12:35:24;6.75;;;1.77;;
74152;SDS011;62505;46.070;14.492;2024-01-07T12:38:01;5.47;;;1.85;;
74152;SDS011;62505;46.070;14.492;2024-01-07T12:40:29;5.43;;;1.63;;
74152;SDS011;62505;46.070;14.492;2024-01-07T12:42:56;7.13;;;1.73;;
74152;SDS011;62505;46.070;14.492;2024-01-07T12:45:23;10.40;;;2.00;;
74152;SDS011;62505;46.070;14.492;2024-01-07T12:47:51;7.40;;;2.95;;
74152;SDS011;62505;46.070;14.492;2024-01-07T12:50:19;10.35;;;2.05;;
74152;SDS011;62505;46.070;14.492;2024-01-07T12:52:48;8.98;;;2.47;;
74152;SDS011;62505;46.070;14.492;2024-01-07T12:55:15;9.80;;;2.42;;
74152;SDS011;62505;46.070;14.492;2024-01-07T12:57:43;6.10;;;2.00;;
74152;SDS011;62505;46.070;14.492;2024-01-07T13:00:11;11.57;;;2.38;;
74152;SDS011;62505;46.070;14.492;2024-01-07T13:02:38;15.77;;;2.20;;
74152;SDS011;62505;46.070;14.492;2024-01-07T13:05:06;3.90;;;1.92;;
74152;SDS011;62505;46.070;14.492;2024-01-07T13:07:33;6.13;;;2.15;;
74152;SDS011;62505;46.070;14.492;2024-01-07T13:10:00;7.20;;;2.00;;
74152;SDS011;62505;46.070;14.492;2024-01-07T13:12:27;5.00;;;1.95;;
74152;SDS011;62505;46.070;14.492;2024-01-07T13:14:56;11.52;;;2.65;;
74152;SDS011;62505;46.070;14.492;2024-01-07T13:17:23;8.45;;;1.90;;
74152;SDS011;62505;46.070;14.492;2024-01-07T13:19:50;8.20;;;2.35;;
74152;SDS011;62505;46.070;14.492;2024-01-07T13:22:17;8.05;;;1.58;;
74152;SDS011;62505;46.070;14.492;2024-01-07T13:24:44;10.48;;;2.65;;
74152;SDS011;62505;46.070;14.492;2024-01-07T13:27:11;8.65;;;1.90;;
74152;SDS011;62505;46.070;14.492;2024-01-07T13:29:38;12.23;;;2.50;;
74152;SDS011;62505;46.070;14.492;2024-01-07T13:32:07;7.68;;;2.67;;
74152;SDS011;62505;46.070;14.492;2024-01-07T13:34:34;5.50;;;1.80;;
74152;SDS011;62505;46.070;14.492;2024-01-07T13:37:01;7.55;;;1.67;;
74152;SDS011;62505;46.070;14.492;2024-01-07T13:39:29;5.57;;;2.03;;
74152;SDS011;62505;46.070;14.492;2024-01-07T13:41:56;12.13;;;2.05;;
74152;SDS011;62505;46.070;14.492;2024-01-07T13:44:23;8.98;;;2.40;;
74152;SDS011;62505;46.070;14.492;2024-01-07T13:46:50;7.38;;;2.03;;
74152;SDS011;62505;46.070;14.492;2024-01-07T13:49:20;8.85;;;2.35;;
74152;SDS011;62505;46.070;14.492;2024-01-07T13:51:46;7.00;;;1.75;;
74152;SDS011;62505;46.070;14.492;2024-01-07T13:54:13;4.15;;;1.75;;
74152;SDS011;62505;46.070;14.492;2024-01-07T13:56:41;6.75;;;1.80;;
74152;SDS011;62505;46.070;14.492;2024-01-07T13:59:09;12.82;;;2.30;;
74152;SDS011;62505;46.070;14.492;2024-01-07T14:01:36;5.00;;;1.80;;
74152;SDS011;62505;46.070;14.492;2024-01-07T14:04:04;5.40;;;1.98;;
74152;SDS011;62505;46.070;14.492;2024-01-07T14:06:33;6.20;;;2.13;;
74152;SDS011;62505;46.070;14.492;2024-01-07T14:09:00;6.43;;;1.50;;
74152;SDS011;62505;46.070;14.492;2024-01-07T14:11:28;11.45;;;1.90;;
74152;SDS011;62505;46.070;14.492;2024-01-07T14:13:55;4.65;;;1.73;;
74152;SDS011;62505;46.070;14.492;2024-01-07T14:16:22;6.60;;;2.10;;
74152;SDS011;62505;46.070;14.492;2024-01-07T14:18:49;6.93;;;1.67;;
74152;SDS011;62505;46.070;14.492;2024-01-07T14:21:16;8.45;;;1.90;;
74152;SDS011;62505;46.070;14.492;2024-01-07T14:23:44;6.30;;;1.85;;
74152;SDS011;62505;46.070;14.492;2024-01-07T14:26:12;3.65;;;1.65;;
74152;SDS011;62505;46.070;14.492;2024-01-07T14:28:40;6.68;;;2.15;;
74152;SDS011;62505;46.070;14.492;2024-01-07T14:31:07;5.10;;;1.65;;
74152;SDS011;62505;46.070;14.492;2024-01-07T14:33:34;5.20;;;1.98;;